createdAt,value
2023-05-11T00:02:47.010Z,0.70
2023-05-11T00:05:38.405Z,0.90
2023-05-11T00:08:29.773Z,0.75
2023-05-11T00:11:21.412Z,1.00
2023-05-11T00:16:52.850Z,1.12
2023-05-11T00:19:43.705Z,0.75
2023-05-11T00:22:34.948Z,0.80
2023-05-11T00:25:25.954Z,0.70
2023-05-11T00:28:17.279Z,0.70
2023-05-11T00:33:47.930Z,0.90
2023-05-11T00:36:41.290Z,0.60
2023-05-11T00:39:32.681Z,0.88
2023-05-11T00:42:23.689Z,0.80
2023-05-11T00:45:15.080Z,0.90
2023-05-11T00:50:47.497Z,0.95
2023-05-11T00:53:39.116Z,0.55
2023-05-11T00:56:30.175Z,0.57
2023-05-11T00:59:21.578Z,0.60
2023-05-11T01:04:53.620Z,0.60
2023-05-11T01:10:33.124Z,1.02
2023-05-11T01:13:28.086Z,0.50
2023-05-11T01:19:05.941Z,0.70
2023-05-11T01:21:57.253Z,0.60
2023-05-11T01:24:57.299Z,0.50
2023-05-11T01:36:13.792Z,0.60
2023-05-11T01:41:46.075Z,0.60
2023-05-11T01:44:38.465Z,0.60
2023-05-11T01:47:33.109Z,0.62
2023-05-11T01:50:27.005Z,0.85
2023-05-11T01:55:58.633Z,0.60
2023-05-11T01:58:50.764Z,1.05
2023-05-11T02:01:42.492Z,0.70
2023-05-11T02:04:35.535Z,0.60
2023-05-11T02:07:28.213Z,0.53
2023-05-11T02:10:21.960Z,0.72
2023-05-11T02:13:14.522Z,0.60
2023-05-11T02:16:09.063Z,0.50
2023-05-11T02:19:01.829Z,0.55
2023-05-11T02:21:55.823Z,0.50
2023-05-11T02:24:48.399Z,0.70
2023-05-11T02:27:39.598Z,0.75
2023-05-11T02:30:33.247Z,0.70
2023-05-11T02:33:27.813Z,0.62
2023-05-11T02:36:21.709Z,0.93
2023-05-11T02:41:58.278Z,0.55
2023-05-11T02:44:54.422Z,1.10
2023-05-11T02:47:49.052Z,0.90
2023-05-11T02:50:43.689Z,0.93
2023-05-11T02:53:36.209Z,0.93
2023-05-11T02:56:27.405Z,0.95
2023-05-11T02:59:19.536Z,0.60
2023-05-11T03:02:11.527Z,0.90
2023-05-11T03:05:03.076Z,0.75
2023-05-11T03:10:35.621Z,0.78
2023-05-11T03:13:28.909Z,0.70
2023-05-11T03:16:22.286Z,0.75
2023-05-11T03:19:14.486Z,0.50
2023-05-11T03:22:07.638Z,0.75
2023-05-11T03:24:59.363Z,1.00
2023-05-11T03:30:36.509Z,0.75
2023-05-11T03:33:27.536Z,0.85
2023-05-11T03:36:20.754Z,0.70
2023-05-11T03:39:15.967Z,0.90
2023-05-11T03:42:08.877Z,0.70
2023-05-11T03:45:01.775Z,0.70
2023-05-11T03:50:35.784Z,0.65
2023-05-11T03:56:09.390Z,0.90
2023-05-11T03:59:00.895Z,0.75
2023-05-11T04:01:53.936Z,1.00
2023-05-11T04:04:45.003Z,0.70
2023-05-11T04:07:37.356Z,0.93
2023-05-11T04:10:28.554Z,0.70
2023-05-11T04:13:21.014Z,0.60
2023-05-11T04:16:12.493Z,0.60
2023-05-11T04:21:42.188Z,0.80
2023-05-11T04:24:33.499Z,0.80
2023-05-11T04:27:25.324Z,0.60
2023-05-11T04:30:17.198Z,0.88
2023-05-11T04:33:08.973Z,1.00
2023-05-11T04:38:41.073Z,0.90
2023-05-11T04:41:33.110Z,0.80
2023-05-11T04:44:24.663Z,0.70
2023-05-11T04:47:16.656Z,0.85
2023-05-11T04:50:11.206Z,0.90
2023-05-11T04:53:03.093Z,1.00
2023-05-11T04:55:55.199Z,1.07
2023-05-11T04:58:46.733Z,0.68
2023-05-11T05:01:38.364Z,1.00
2023-05-11T05:04:29.992Z,1.00
2023-05-11T05:07:21.443Z,0.70
2023-05-11T05:10:13.627Z,0.98
2023-05-11T05:13:05.350Z,0.70
2023-05-11T05:15:56.892Z,1.35
2023-05-11T05:18:49.000Z,1.00
2023-05-11T05:21:40.856Z,0.90
2023-05-11T05:27:12.657Z,1.10
2023-05-11T05:32:43.416Z,1.05
2023-05-11T05:35:34.524Z,0.80
2023-05-11T05:41:04.948Z,1.10
2023-05-11T05:43:57.692Z,0.90
2023-05-11T05:46:49.561Z,1.00
2023-05-11T05:49:41.191Z,1.30
2023-05-11T05:52:32.532Z,1.00
2023-05-11T05:58:03.558Z,1.05
2023-05-11T06:00:55.550Z,1.15
2023-05-11T06:03:47.824Z,0.70
2023-05-11T06:06:39.689Z,0.80
2023-05-11T06:12:11.112Z,0.80
2023-05-11T06:17:45.237Z,0.80
2023-05-11T06:20:36.845Z,0.80
2023-05-11T06:26:08.052Z,0.65
2023-05-11T06:29:00.179Z,0.95
2023-05-11T06:31:54.488Z,1.30
2023-05-11T06:34:46.324Z,0.95
2023-05-11T06:37:38.717Z,0.88
2023-05-11T06:40:30.591Z,0.62
2023-05-11T06:46:00.263Z,0.90
2023-05-11T06:48:51.277Z,0.80
2023-05-11T06:54:23.104Z,0.78
2023-05-11T06:57:14.762Z,0.60
2023-05-11T07:00:08.731Z,0.70
2023-05-11T07:05:40.253Z,0.80
2023-05-11T07:08:31.773Z,0.88
2023-05-11T07:14:04.343Z,0.80
2023-05-11T07:16:56.143Z,0.90
2023-05-11T07:19:47.609Z,1.35
2023-05-11T07:22:39.124Z,0.88
2023-05-11T07:25:32.637Z,0.80
2023-05-11T07:31:03.222Z,0.90
2023-05-11T07:33:54.557Z,0.68
2023-05-11T07:36:46.651Z,0.85
2023-05-11T07:39:37.992Z,0.68
2023-05-11T07:42:29.466Z,0.80
2023-05-11T07:45:21.116Z,0.78
2023-05-11T07:50:50.903Z,0.60
2023-05-11T07:53:42.036Z,0.88
2023-05-11T07:56:33.340Z,0.75
2023-05-11T07:59:24.427Z,0.80
2023-05-11T08:02:16.608Z,0.75
2023-05-11T08:07:47.695Z,0.60
2023-05-11T08:10:39.045Z,1.00
2023-05-11T08:16:11.850Z,0.50
2023-05-11T08:21:42.034Z,0.70
2023-05-11T08:24:32.920Z,0.55
2023-05-11T08:27:24.214Z,0.68
2023-05-11T08:30:16.807Z,0.50
2023-05-11T08:33:29.046Z,0.60
2023-05-11T08:36:01.875Z,0.57
2023-05-11T08:38:57.036Z,0.50
2023-05-11T08:41:47.795Z,0.50
2023-05-11T08:44:44.403Z,0.50
2023-05-11T08:47:36.420Z,0.40
2023-05-11T08:53:05.616Z,0.60
2023-05-11T08:55:58.657Z,0.60
2023-05-11T09:01:33.799Z,0.65
2023-05-11T09:04:26.028Z,0.72
2023-05-11T09:07:18.920Z,0.40
2023-05-11T09:10:13.916Z,0.50
2023-05-11T09:13:05.815Z,0.88
2023-05-11T09:15:57.610Z,0.80
2023-05-11T09:18:53.681Z,0.70
2023-05-11T09:21:45.072Z,0.42
2023-05-11T09:27:21.294Z,0.50
2023-05-11T09:35:49.929Z,0.42
2023-05-11T09:38:40.844Z,0.60
2023-05-11T09:44:13.945Z,0.62
2023-05-11T09:47:13.429Z,0.35
2023-05-11T09:50:09.562Z,0.50
2023-05-11T09:55:47.388Z,0.55
2023-05-11T09:58:50.001Z,0.40
2023-05-11T10:01:41.683Z,0.40
2023-05-11T10:04:33.199Z,0.50
2023-05-11T10:07:32.202Z,0.60
2023-05-11T10:10:23.626Z,0.40
2023-05-11T10:15:55.928Z,0.40
2023-05-11T10:18:48.515Z,0.40
2023-05-11T10:21:40.917Z,0.30
2023-05-11T10:24:32.814Z,0.45
2023-05-11T10:30:04.404Z,0.42
2023-05-11T10:32:56.893Z,0.50
2023-05-11T10:35:49.633Z,0.35
2023-05-11T10:41:33.258Z,0.30
2023-05-11T10:44:38.515Z,0.70
2023-05-11T10:47:38.874Z,0.60
2023-05-11T10:53:29.375Z,0.40
2023-05-11T10:56:28.207Z,0.40
2023-05-11T10:59:42.976Z,0.40
2023-05-11T11:02:34.917Z,0.30
2023-05-11T11:05:36.483Z,0.40
2023-05-11T11:08:28.850Z,0.40
2023-05-11T11:11:39.309Z,0.98
2023-05-11T11:17:29.097Z,0.30
2023-05-11T11:25:54.973Z,0.60
2023-05-11T11:29:10.660Z,0.60
2023-05-11T11:40:51.397Z,0.40
2023-05-11T11:46:32.107Z,0.50
2023-05-11T11:49:26.209Z,0.50
2023-05-11T11:52:33.943Z,0.30
2023-05-11T11:55:49.130Z,0.33
2023-05-11T11:59:01.715Z,0.53
2023-05-11T12:01:56.377Z,0.40
2023-05-11T12:07:35.568Z,0.53
2023-05-11T12:10:26.847Z,0.50
2023-05-11T12:16:10.843Z,0.25
2023-05-11T12:19:04.326Z,0.47
2023-05-11T12:21:55.694Z,0.10
2023-05-11T12:24:46.885Z,0.35
2023-05-11T12:27:40.026Z,0.20
2023-05-11T12:33:10.409Z,0.10
2023-05-11T12:36:01.645Z,0.20
2023-05-11T12:41:35.282Z,0.20
2023-05-11T12:44:27.792Z,0.10
2023-05-11T12:47:19.251Z,0.10
2023-05-11T12:52:51.014Z,0.30
2023-05-11T12:55:42.862Z,0.20
2023-05-11T12:58:40.139Z,0.20
2023-05-11T13:01:31.919Z,0.20
2023-05-11T13:04:32.214Z,0.20
2023-05-11T13:07:29.104Z,0.20
2023-05-11T13:10:23.552Z,0.13
2023-05-11T13:13:16.180Z,0.20
2023-05-11T13:16:08.224Z,0.20
2023-05-11T13:21:41.183Z,0.20
2023-05-11T13:24:34.256Z,0.20
2023-05-11T13:27:24.911Z,0.13
2023-05-11T13:30:16.826Z,0.23
2023-05-11T13:33:08.230Z,1.02
2023-05-11T13:35:59.878Z,0.40
2023-05-11T13:38:51.640Z,0.20
2023-05-11T13:41:43.026Z,0.20
2023-05-11T13:44:34.550Z,0.30
2023-05-11T13:47:27.048Z,0.20
2023-05-11T13:50:18.554Z,0.30
2023-05-11T13:53:11.577Z,0.28
2023-05-11T13:56:04.545Z,0.20
2023-05-11T13:58:57.249Z,0.30
2023-05-11T14:01:48.826Z,0.33
2023-05-11T14:04:40.672Z,0.20
2023-05-11T14:07:45.656Z,0.30
2023-05-11T14:10:25.096Z,0.13
2023-05-11T14:13:16.886Z,0.20
2023-05-11T14:16:10.146Z,0.25
2023-05-11T14:19:01.663Z,0.20
2023-05-11T14:21:52.806Z,0.23
2023-05-11T14:24:44.390Z,0.20
2023-05-11T14:27:35.776Z,0.35
2023-05-11T14:30:27.030Z,0.13
2023-05-11T14:33:18.957Z,0.20
2023-05-11T14:36:11.575Z,0.10
2023-05-11T14:39:03.626Z,0.20
2023-05-11T14:41:55.051Z,0.20
2023-05-11T14:44:47.257Z,0.23
2023-05-11T14:47:38.603Z,0.30
2023-05-11T14:50:30.858Z,0.20
2023-05-11T14:53:22.221Z,0.33
2023-05-11T14:56:13.816Z,0.20
2023-05-11T14:59:05.799Z,0.20
2023-05-11T15:01:57.498Z,0.40
2023-05-11T15:04:49.066Z,0.20
2023-05-11T15:07:40.671Z,0.20
2023-05-11T15:10:32.027Z,0.30
2023-05-11T15:13:23.593Z,0.30
2023-05-11T15:16:15.118Z,0.25
2023-05-11T15:19:08.015Z,0.20
2023-05-11T15:21:59.530Z,0.10
2023-05-11T15:24:50.862Z,0.10
2023-05-11T15:27:42.372Z,0.30
2023-05-11T15:30:34.272Z,0.28
2023-05-11T15:33:25.936Z,0.20
2023-05-11T15:36:17.679Z,0.25
2023-05-11T15:39:11.616Z,0.37
2023-05-11T15:42:03.000Z,0.20
2023-05-11T15:44:54.455Z,0.30
2023-05-11T15:47:46.298Z,0.25
2023-05-11T15:50:37.974Z,0.30
2023-05-11T15:53:29.784Z,0.42
2023-05-11T15:56:21.083Z,0.20
2023-05-11T15:59:12.735Z,0.30
2023-05-11T16:02:04.165Z,0.20
2023-05-11T16:04:56.531Z,1.72
2023-05-11T16:07:48.014Z,0.75
2023-05-11T16:10:39.438Z,1.22
2023-05-11T16:13:30.768Z,0.65
2023-05-11T16:16:22.418Z,0.65
2023-05-11T16:19:14.234Z,0.47
2023-05-11T16:22:05.928Z,0.80
2023-05-11T16:24:57.155Z,0.60
2023-05-11T16:27:48.805Z,0.50
2023-05-11T16:30:40.533Z,0.30
2023-05-11T16:33:31.993Z,0.10
2023-05-11T16:36:23.816Z,0.10
2023-05-11T16:39:16.775Z,0.10
2023-05-11T16:42:08.519Z,0.40
2023-05-11T16:45:00.033Z,0.30
2023-05-11T16:47:52.212Z,0.20
2023-05-11T16:50:43.625Z,0.35
2023-05-11T16:53:35.564Z,0.20
2023-05-11T16:56:26.706Z,0.00
2023-05-11T16:59:17.981Z,0.00
2023-05-11T17:02:09.950Z,0.10
2023-05-11T17:05:01.753Z,0.00
2023-05-11T17:07:53.454Z,0.00
2023-05-11T17:10:45.403Z,0.25
2023-05-11T17:13:37.176Z,0.20
2023-05-11T17:16:30.426Z,0.25
2023-05-11T17:19:21.693Z,0.30
2023-05-11T17:22:13.415Z,0.30
2023-05-11T17:25:05.584Z,0.50
2023-05-11T17:27:57.508Z,0.30
2023-05-11T17:30:51.039Z,0.50
2023-05-11T17:33:43.026Z,0.40
2023-05-11T17:36:34.485Z,0.10
2023-05-11T17:39:25.636Z,0.20
2023-05-11T17:42:16.840Z,0.23
2023-05-11T17:45:11.184Z,0.50
2023-05-11T17:48:02.362Z,0.53
2023-05-11T17:50:54.689Z,0.40
2023-05-11T17:53:46.159Z,0.60
2023-05-11T17:56:38.029Z,0.60
2023-05-11T17:59:29.065Z,0.80
2023-05-11T18:02:20.570Z,0.60
2023-05-11T18:05:12.411Z,0.57
2023-05-11T18:08:06.425Z,0.60
2023-05-11T18:10:57.786Z,0.40
2023-05-11T18:13:49.771Z,0.30
2023-05-11T18:16:43.660Z,0.30
2023-05-11T18:19:35.101Z,0.50
2023-05-11T18:22:26.217Z,0.42
2023-05-11T18:25:18.546Z,0.62
2023-05-11T18:28:10.108Z,0.80
2023-05-11T18:31:02.256Z,1.20
2023-05-11T18:33:53.684Z,1.00
2023-05-11T18:36:45.498Z,0.75
2023-05-11T18:39:37.017Z,0.90
2023-05-11T18:42:28.435Z,1.22
2023-05-11T18:45:20.050Z,1.20
2023-05-11T18:48:11.591Z,2.10
2023-05-11T18:51:03.082Z,1.50
2023-05-11T18:53:54.945Z,0.98
2023-05-11T18:56:46.575Z,0.93
2023-05-11T18:59:37.948Z,0.70
2023-05-11T19:02:29.950Z,0.50
2023-05-11T19:05:23.833Z,1.10
2023-05-11T19:08:15.386Z,1.17
2023-05-11T19:11:11.373Z,0.98
2023-05-11T19:14:03.268Z,1.00
2023-05-11T19:16:55.463Z,0.90
2023-05-11T19:19:47.185Z,0.88
2023-05-11T19:22:41.585Z,0.88
2023-05-11T19:25:33.205Z,0.62
2023-05-11T19:28:24.327Z,0.70
2023-05-11T19:31:15.876Z,1.07
2023-05-11T19:34:07.696Z,1.12
2023-05-11T19:36:59.268Z,0.72
2023-05-11T19:39:51.393Z,0.50
2023-05-11T19:42:42.907Z,0.60
2023-05-11T19:45:34.209Z,0.45
2023-05-11T19:48:25.797Z,0.47
2023-05-11T19:51:17.380Z,0.40
2023-05-11T19:54:08.200Z,0.30
2023-05-11T19:57:00.436Z,0.60
2023-05-11T19:59:54.603Z,0.40
2023-05-11T20:02:46.719Z,0.40
2023-05-11T20:05:38.393Z,0.42
2023-05-11T20:08:29.850Z,0.45
2023-05-11T20:11:21.487Z,0.90
2023-05-11T20:14:12.772Z,0.50
2023-05-11T20:17:07.029Z,0.60
2023-05-11T20:19:58.568Z,0.70
2023-05-11T20:22:49.875Z,0.40
2023-05-11T20:25:42.953Z,0.80
2023-05-11T20:28:34.266Z,0.50
2023-05-11T20:31:26.940Z,0.62
2023-05-11T20:34:18.610Z,0.53
2023-05-11T20:37:09.818Z,0.50
2023-05-11T20:40:01.076Z,0.40
2023-05-11T20:42:52.607Z,0.45
2023-05-11T20:48:36.227Z,0.50
2023-05-11T20:53:56.876Z,0.50
2023-05-11T20:56:48.570Z,0.50
2023-05-11T21:02:32.607Z,0.40
2023-05-11T21:05:25.579Z,0.40
2023-05-11T21:08:16.710Z,0.37
2023-05-11T21:11:08.029Z,0.20
2023-05-11T21:13:59.179Z,0.28
2023-05-11T21:16:50.757Z,0.20
2023-05-11T21:19:42.065Z,0.30
2023-05-11T21:22:34.824Z,0.30
2023-05-11T21:25:27.083Z,0.50
2023-05-11T21:28:19.265Z,0.50
2023-05-11T21:31:10.453Z,0.47
2023-05-11T21:34:04.004Z,0.60
2023-05-11T21:36:54.954Z,0.60
2023-05-11T21:39:46.260Z,0.50
2023-05-11T21:42:37.730Z,0.20
2023-05-11T21:45:28.926Z,0.50
2023-05-11T21:48:20.164Z,0.57
2023-05-11T21:51:11.517Z,0.23
2023-05-11T21:54:03.121Z,0.50
2023-05-11T21:56:54.657Z,0.30
2023-05-11T21:59:45.743Z,0.50
2023-05-11T22:02:37.149Z,0.30
2023-05-11T22:05:28.549Z,0.42
2023-05-11T22:08:19.613Z,0.40
2023-05-11T22:11:10.861Z,0.40
2023-05-11T22:14:02.215Z,0.37
2023-05-11T22:16:53.648Z,0.40
2023-05-11T22:19:45.214Z,0.68
2023-05-11T22:22:37.023Z,0.70
2023-05-11T22:25:28.120Z,0.70
2023-05-11T22:28:19.520Z,0.40
2023-05-11T22:31:10.936Z,0.37
2023-05-11T22:34:02.062Z,0.30
2023-05-11T22:36:53.527Z,0.50
2023-05-11T22:39:44.904Z,0.40
2023-05-11T22:42:36.254Z,0.30
2023-05-11T22:45:27.545Z,0.50
2023-05-11T22:48:19.078Z,0.30
2023-05-11T22:51:10.653Z,0.50
2023-05-11T22:54:02.094Z,0.40
2023-05-11T22:56:53.610Z,0.30
2023-05-11T22:59:46.899Z,0.50
2023-05-11T23:02:38.205Z,0.50
2023-05-11T23:05:29.968Z,0.30
2023-05-11T23:08:23.170Z,0.40
2023-05-11T23:11:14.671Z,0.53
2023-05-11T23:14:05.923Z,0.60
2023-05-11T23:16:57.126Z,0.50
2023-05-11T23:19:48.702Z,0.40
2023-05-11T23:22:40.179Z,0.60
2023-05-11T23:25:31.792Z,0.57
2023-05-11T23:28:23.415Z,0.37
2023-05-11T23:31:14.735Z,0.40
2023-05-11T23:34:06.149Z,0.88
2023-05-11T23:36:57.581Z,0.40
2023-05-11T23:39:49.762Z,0.40
2023-05-11T23:42:41.048Z,0.40
2023-05-11T23:45:32.156Z,0.40
2023-05-11T23:48:23.656Z,0.35
2023-05-11T23:51:15.334Z,0.40
2023-05-11T23:54:07.573Z,0.40
2023-05-11T23:59:40.137Z,0.30
